sensor_id;sensor_type;location;lat;lon;timestamp;temperature;humidity
14142;DHT22;7151;52.246;4.820;2022-11-14T00:00:01;13.40;71.20
14142;DHT22;7151;52.246;4.820;2022-11-14T00:02:27;13.40;71.20
14142;DHT22;7151;52.246;4.820;2022-11-14T00:04:52;13.30;71.10
14142;DHT22;7151;52.246;4.820;2022-11-14T00:07:18;13.30;71.10
14142;DHT22;7151;52.246;4.820;2022-11-14T00:09:44;13.30;71.10
14142;DHT22;7151;52.246;4.820;2022-11-14T00:12:09;13.30;71.00
14142;DHT22;7151;52.246;4.820;2022-11-14T00:14:35;13.20;70.90
14142;DHT22;7151;52.246;4.820;2022-11-14T00:17:02;13.20;70.90
14142;DHT22;7151;52.246;4.820;2022-11-14T00:19:27;13.20;70.90
14142;DHT22;7151;52.246;4.820;2022-11-14T00:21:53;13.20;70.90
14142;DHT22;7151;52.246;4.820;2022-11-14T00:24:19;13.20;70.90
14142;DHT22;7151;52.246;4.820;2022-11-14T00:26:45;13.10;70.90
14142;DHT22;7151;52.246;4.820;2022-11-14T00:29:12;13.10;70.90
14142;DHT22;7151;52.246;4.820;2022-11-14T00:31:37;13.10;70.90
14142;DHT22;7151;52.246;4.820;2022-11-14T00:34:03;13.10;71.20
14142;DHT22;7151;52.246;4.820;2022-11-14T00:36:29;13.10;70.90
14142;DHT22;7151;52.246;4.820;2022-11-14T00:38:55;13.00;70.90
14142;DHT22;7151;52.246;4.820;2022-11-14T00:41:20;13.00;70.90
14142;DHT22;7151;52.246;4.820;2022-11-14T00:43:49;12.90;70.90
14142;DHT22;7151;52.246;4.820;2022-11-14T00:46:15;12.90;71.00
14142;DHT22;7151;52.246;4.820;2022-11-14T00:48:41;12.90;70.90
14142;DHT22;7151;52.246;4.820;2022-11-14T00:51:06;12.90;70.90
14142;DHT22;7151;52.246;4.820;2022-11-14T00:53:32;12.90;71.00
14142;DHT22;7151;52.246;4.820;2022-11-14T00:55:57;12.90;70.90
14142;DHT22;7151;52.246;4.820;2022-11-14T00:58:23;12.90;70.90
14142;DHT22;7151;52.246;4.820;2022-11-14T01:00:48;12.80;70.90
14142;DHT22;7151;52.246;4.820;2022-11-14T01:03:14;12.80;70.90
14142;DHT22;7151;52.246;4.820;2022-11-14T01:05:48;12.80;70.90
14142;DHT22;7151;52.246;4.820;2022-11-14T01:08:15;12.80;70.80
14142;DHT22;7151;52.246;4.820;2022-11-14T01:10:45;12.70;70.70
14142;DHT22;7151;52.246;4.820;2022-11-14T01:13:11;12.70;70.80
14142;DHT22;7151;52.246;4.820;2022-11-14T01:15:41;12.70;70.70
14142;DHT22;7151;52.246;4.820;2022-11-14T01:18:09;12.70;70.70
14142;DHT22;7151;52.246;4.820;2022-11-14T01:20:38;12.70;70.70
14142;DHT22;7151;52.246;4.820;2022-11-14T01:23:03;12.60;70.70
14142;DHT22;7151;52.246;4.820;2022-11-14T01:25:32;12.60;70.60
14142;DHT22;7151;52.246;4.820;2022-11-14T01:27:57;12.60;70.70
14142;DHT22;7151;52.246;4.820;2022-11-14T01:30:23;12.60;70.70
14142;DHT22;7151;52.246;4.820;2022-11-14T01:32:48;12.60;70.70
14142;DHT22;7151;52.246;4.820;2022-11-14T01:35:14;12.60;70.70
14142;DHT22;7151;52.246;4.820;2022-11-14T01:37:40;12.50;70.60
14142;DHT22;7151;52.246;4.820;2022-11-14T01:40:06;12.50;70.60
14142;DHT22;7151;52.246;4.820;2022-11-14T01:42:32;12.50;70.60
14142;DHT22;7151;52.246;4.820;2022-11-14T01:44:58;12.50;70.60
14142;DHT22;7151;52.246;4.820;2022-11-14T01:47:27;12.40;70.50
14142;DHT22;7151;52.246;4.820;2022-11-14T01:49:57;12.40;70.50
14142;DHT22;7151;52.246;4.820;2022-11-14T01:52:28;12.40;70.50
14142;DHT22;7151;52.246;4.820;2022-11-14T01:55:00;12.40;70.40
14142;DHT22;7151;52.246;4.820;2022-11-14T01:57:30;12.30;70.40
14142;DHT22;7151;52.246;4.820;2022-11-14T02:00:03;12.30;70.40
14142;DHT22;7151;52.246;4.820;2022-11-14T02:02:30;12.20;70.40
14142;DHT22;7151;52.246;4.820;2022-11-14T02:05:00;12.20;70.40
14142;DHT22;7151;52.246;4.820;2022-11-14T02:07:28;12.20;70.40
14142;DHT22;7151;52.246;4.820;2022-11-14T02:09:54;12.20;70.50
14142;DHT22;7151;52.246;4.820;2022-11-14T02:12:21;12.20;70.50
14142;DHT22;7151;52.246;4.820;2022-11-14T02:14:50;12.20;70.50
14142;DHT22;7151;52.246;4.820;2022-11-14T02:17:17;12.10;70.50
14142;DHT22;7151;52.246;4.820;2022-11-14T02:20:05;12.10;70.50
14142;DHT22;7151;52.246;4.820;2022-11-14T02:22:30;12.10;70.50
14142;DHT22;7151;52.246;4.820;2022-11-14T02:24:56;12.00;70.50
14142;DHT22;7151;52.246;4.820;2022-11-14T02:27:22;12.00;70.50
14142;DHT22;7151;52.246;4.820;2022-11-14T02:29:47;12.00;71.10
14142;DHT22;7151;52.246;4.820;2022-11-14T02:32:13;11.90;70.50
14142;DHT22;7151;52.246;4.820;2022-11-14T02:34:38;11.90;70.50
14142;DHT22;7151;52.246;4.820;2022-11-14T02:37:05;11.90;70.50
14142;DHT22;7151;52.246;4.820;2022-11-14T02:39:30;11.90;70.50
14142;DHT22;7151;52.246;4.820;2022-11-14T02:41:56;11.90;70.50
14142;DHT22;7151;52.246;4.820;2022-11-14T02:44:21;11.80;70.50
14142;DHT22;7151;52.246;4.820;2022-11-14T02:46:47;11.80;70.60
14142;DHT22;7151;52.246;4.820;2022-11-14T02:49:12;11.80;70.60
14142;DHT22;7151;52.246;4.820;2022-11-14T02:51:38;11.80;70.70
14142;DHT22;7151;52.246;4.820;2022-11-14T02:54:05;11.70;70.70
14142;DHT22;7151;52.246;4.820;2022-11-14T02:56:31;11.70;70.80
14142;DHT22;7151;52.246;4.820;2022-11-14T02:58:56;11.70;70.80
14142;DHT22;7151;52.246;4.820;2022-11-14T03:01:22;11.70;70.80
14142;DHT22;7151;52.246;4.820;2022-11-14T03:03:47;11.70;70.80
14142;DHT22;7151;52.246;4.820;2022-11-14T03:06:13;11.60;70.80
14142;DHT22;7151;52.246;4.820;2022-11-14T03:08:39;11.60;70.80
14142;DHT22;7151;52.246;4.820;2022-11-14T03:11:06;11.60;70.90
14142;DHT22;7151;52.246;4.820;2022-11-14T03:13:32;11.60;71.00
14142;DHT22;7151;52.246;4.820;2022-11-14T03:16:04;11.60;71.00
14142;DHT22;7151;52.246;4.820;2022-11-14T03:18:30;11.50;71.00
14142;DHT22;7151;52.246;4.820;2022-11-14T03:20:56;11.50;71.00
14142;DHT22;7151;52.246;4.820;2022-11-14T03:23:21;11.50;71.10
14142;DHT22;7151;52.246;4.820;2022-11-14T03:25:47;11.50;71.20
14142;DHT22;7151;52.246;4.820;2022-11-14T03:28:12;11.50;71.20
14142;DHT22;7151;52.246;4.820;2022-11-14T03:30:38;11.50;71.30
14142;DHT22;7151;52.246;4.820;2022-11-14T03:33:04;11.40;71.30
14142;DHT22;7151;52.246;4.820;2022-11-14T03:35:29;11.40;71.30
14142;DHT22;7151;52.246;4.820;2022-11-14T03:37:55;11.40;71.30
14142;DHT22;7151;52.246;4.820;2022-11-14T03:40:20;11.40;71.30
14142;DHT22;7151;52.246;4.820;2022-11-14T03:42:46;11.40;71.30
14142;DHT22;7151;52.246;4.820;2022-11-14T03:45:11;11.40;71.40
14142;DHT22;7151;52.246;4.820;2022-11-14T03:47:37;11.40;71.40
14142;DHT22;7151;52.246;4.820;2022-11-14T03:50:03;11.30;71.40
14142;DHT22;7151;52.246;4.820;2022-11-14T03:52:28;11.30;71.40
14142;DHT22;7151;52.246;4.820;2022-11-14T03:54:54;11.30;71.40
14142;DHT22;7151;52.246;4.820;2022-11-14T03:57:19;11.40;71.50
14142;DHT22;7151;52.246;4.820;2022-11-14T03:59:45;11.20;71.30
14142;DHT22;7151;52.246;4.820;2022-11-14T04:02:10;11.30;71.50
14142;DHT22;7151;52.246;4.820;2022-11-14T04:04:36;11.20;71.40
14142;DHT22;7151;52.246;4.820;2022-11-14T04:07:01;11.20;71.40
14142;DHT22;7151;52.246;4.820;2022-11-14T04:09:27;11.20;71.50
14142;DHT22;7151;52.246;4.820;2022-11-14T04:11:53;11.20;71.50
14142;DHT22;7151;52.246;4.820;2022-11-14T04:14:19;11.10;71.50
14142;DHT22;7151;52.246;4.820;2022-11-14T04:16:44;11.20;71.60
14142;DHT22;7151;52.246;4.820;2022-11-14T04:19:10;11.10;71.60
14142;DHT22;7151;52.246;4.820;2022-11-14T04:21:36;11.10;71.60
14142;DHT22;7151;52.246;4.820;2022-11-14T04:24:01;11.10;71.70
14142;DHT22;7151;52.246;4.820;2022-11-14T04:26:27;11.00;71.60
14142;DHT22;7151;52.246;4.820;2022-11-14T04:28:52;11.00;71.70
14142;DHT22;7151;52.246;4.820;2022-11-14T04:31:18;11.00;71.80
14142;DHT22;7151;52.246;4.820;2022-11-14T04:33:43;11.00;71.80
14142;DHT22;7151;52.246;4.820;2022-11-14T04:36:09;11.00;71.90
14142;DHT22;7151;52.246;4.820;2022-11-14T04:38:34;10.90;71.80
14142;DHT22;7151;52.246;4.820;2022-11-14T04:41:00;10.90;71.80
14142;DHT22;7151;52.246;4.820;2022-11-14T04:43:26;10.90;71.80
14142;DHT22;7151;52.246;4.820;2022-11-14T04:45:51;10.90;71.80
14142;DHT22;7151;52.246;4.820;2022-11-14T04:48:17;10.90;71.90
14142;DHT22;7151;52.246;4.820;2022-11-14T04:50:44;10.90;71.90
14142;DHT22;7151;52.246;4.820;2022-11-14T04:53:10;10.90;72.00
14142;DHT22;7151;52.246;4.820;2022-11-14T04:55:35;10.80;72.00
14142;DHT22;7151;52.246;4.820;2022-11-14T04:58:01;10.80;72.00
14142;DHT22;7151;52.246;4.820;2022-11-14T05:00:27;10.80;72.00
14142;DHT22;7151;52.246;4.820;2022-11-14T05:02:52;10.80;72.00
14142;DHT22;7151;52.246;4.820;2022-11-14T05:05:18;10.80;72.10
14142;DHT22;7151;52.246;4.820;2022-11-14T05:07:44;10.80;72.10
14142;DHT22;7151;52.246;4.820;2022-11-14T05:10:09;10.80;72.10
14142;DHT22;7151;52.246;4.820;2022-11-14T05:12:35;10.70;72.10
14142;DHT22;7151;52.246;4.820;2022-11-14T05:15:00;10.70;72.10
14142;DHT22;7151;52.246;4.820;2022-11-14T05:17:27;10.70;72.20
14142;DHT22;7151;52.246;4.820;2022-11-14T05:19:52;10.70;72.20
14142;DHT22;7151;52.246;4.820;2022-11-14T05:22:18;10.70;72.20
14142;DHT22;7151;52.246;4.820;2022-11-14T05:24:43;10.70;72.30
14142;DHT22;7151;52.246;4.820;2022-11-14T05:27:09;10.60;72.20
14142;DHT22;7151;52.246;4.820;2022-11-14T05:29:34;10.60;72.20
14142;DHT22;7151;52.246;4.820;2022-11-14T05:32:00;10.60;72.30
14142;DHT22;7151;52.246;4.820;2022-11-14T05:34:26;10.60;72.20
14142;DHT22;7151;52.246;4.820;2022-11-14T05:36:52;10.60;72.20
14142;DHT22;7151;52.246;4.820;2022-11-14T05:39:18;10.60;72.20
14142;DHT22;7151;52.246;4.820;2022-11-14T05:41:43;10.60;72.30
14142;DHT22;7151;52.246;4.820;2022-11-14T05:44:09;10.50;72.20
14142;DHT22;7151;52.246;4.820;2022-11-14T05:46:35;10.50;72.20
14142;DHT22;7151;52.246;4.820;2022-11-14T05:49:01;10.50;72.20
14142;DHT22;7151;52.246;4.820;2022-11-14T05:51:26;10.50;72.20
14142;DHT22;7151;52.246;4.820;2022-11-14T05:53:52;10.50;72.30
14142;DHT22;7151;52.246;4.820;2022-11-14T05:56:18;10.50;72.30
14142;DHT22;7151;52.246;4.820;2022-11-14T05:58:43;10.50;72.30
14142;DHT22;7151;52.246;4.820;2022-11-14T06:01:15;10.40;72.30
14142;DHT22;7151;52.246;4.820;2022-11-14T06:03:42;10.40;72.30
14142;DHT22;7151;52.246;4.820;2022-11-14T06:06:11;10.40;72.30
14142;DHT22;7151;52.246;4.820;2022-11-14T06:08:37;10.40;72.40
14142;DHT22;7151;52.246;4.820;2022-11-14T06:11:23;10.40;72.40
14142;DHT22;7151;52.246;4.820;2022-11-14T06:13:49;10.40;72.50
14142;DHT22;7151;52.246;4.820;2022-11-14T06:16:17;10.40;72.50
14142;DHT22;7151;52.246;4.820;2022-11-14T06:18:43;10.30;72.40
14142;DHT22;7151;52.246;4.820;2022-11-14T06:21:14;10.30;72.50
14142;DHT22;7151;52.246;4.820;2022-11-14T06:23:40;10.30;72.50
14142;DHT22;7151;52.246;4.820;2022-11-14T06:26:09;10.30;72.50
14142;DHT22;7151;52.246;4.820;2022-11-14T06:28:37;10.30;72.50
14142;DHT22;7151;52.246;4.820;2022-11-14T06:31:03;10.30;72.50
14142;DHT22;7151;52.246;4.820;2022-11-14T06:33:33;10.30;72.50
14142;DHT22;7151;52.246;4.820;2022-11-14T06:36:00;10.20;72.40
14142;DHT22;7151;52.246;4.820;2022-11-14T06:38:27;10.20;72.40
14142;DHT22;7151;52.246;4.820;2022-11-14T06:41:04;10.20;72.40
14142;DHT22;7151;52.246;4.820;2022-11-14T06:43:38;10.20;72.40
14142;DHT22;7151;52.246;4.820;2022-11-14T06:46:04;10.20;72.40
14142;DHT22;7151;52.246;4.820;2022-11-14T06:48:30;10.10;72.30
14142;DHT22;7151;52.246;4.820;2022-11-14T06:50:57;10.10;72.40
14142;DHT22;7151;52.246;4.820;2022-11-14T06:53:24;10.10;72.40
14142;DHT22;7151;52.246;4.820;2022-11-14T06:58:19;10.10;72.40
14142;DHT22;7151;52.246;4.820;2022-11-14T07:00:45;10.10;72.50
14142;DHT22;7151;52.246;4.820;2022-11-14T07:03:11;10.00;72.40
14142;DHT22;7151;52.246;4.820;2022-11-14T07:05:36;10.10;72.50
14142;DHT22;7151;52.246;4.820;2022-11-14T07:08:02;10.00;72.40
14142;DHT22;7151;52.246;4.820;2022-11-14T07:10:28;10.00;72.40
14142;DHT22;7151;52.246;4.820;2022-11-14T07:12:53;10.00;72.50
14142;DHT22;7151;52.246;4.820;2022-11-14T07:15:19;10.00;72.50
14142;DHT22;7151;52.246;4.820;2022-11-14T07:17:44;10.00;72.50
14142;DHT22;7151;52.246;4.820;2022-11-14T07:20:13;10.00;72.50
14142;DHT22;7151;52.246;4.820;2022-11-14T07:22:39;9.90;72.50
14142;DHT22;7151;52.246;4.820;2022-11-14T07:25:05;9.90;72.60
14142;DHT22;7151;52.246;4.820;2022-11-14T07:27:31;9.90;72.60
14142;DHT22;7151;52.246;4.820;2022-11-14T07:29:56;9.90;72.70
14142;DHT22;7151;52.246;4.820;2022-11-14T07:32:22;9.90;72.70
14142;DHT22;7151;52.246;4.820;2022-11-14T07:34:47;9.90;72.70
14142;DHT22;7151;52.246;4.820;2022-11-14T07:37:13;9.90;72.80
14142;DHT22;7151;52.246;4.820;2022-11-14T07:39:39;9.90;72.80
14142;DHT22;7151;52.246;4.820;2022-11-14T07:42:04;9.90;72.80
14142;DHT22;7151;52.246;4.820;2022-11-14T07:44:30;9.90;72.90
14142;DHT22;7151;52.246;4.820;2022-11-14T07:46:55;9.90;72.90
14142;DHT22;7151;52.246;4.820;2022-11-14T07:49:21;9.90;73.00
14142;DHT22;7151;52.246;4.820;2022-11-14T07:51:46;9.80;73.00
14142;DHT22;7151;52.246;4.820;2022-11-14T07:54:12;9.90;73.20
14142;DHT22;7151;52.246;4.820;2022-11-14T07:56:37;9.80;73.10
14142;DHT22;7151;52.246;4.820;2022-11-14T07:59:03;9.90;73.30
14142;DHT22;7151;52.246;4.820;2022-11-14T08:01:28;9.90;73.40
14142;DHT22;7151;52.246;4.820;2022-11-14T08:03:54;9.90;73.40
14142;DHT22;7151;52.246;4.820;2022-11-14T08:06:19;9.90;73.40
14142;DHT22;7151;52.246;4.820;2022-11-14T08:08:45;9.90;73.60
14142;DHT22;7151;52.246;4.820;2022-11-14T08:11:11;9.90;73.60
14142;DHT22;7151;52.246;4.820;2022-11-14T08:13:36;9.90;73.70
14142;DHT22;7151;52.246;4.820;2022-11-14T08:16:04;9.90;73.70
14142;DHT22;7151;52.246;4.820;2022-11-14T08:18:29;10.00;73.90
14142;DHT22;7151;52.246;4.820;2022-11-14T08:20:55;10.00;74.00
14142;DHT22;7151;52.246;4.820;2022-11-14T08:23:21;10.00;74.00
14142;DHT22;7151;52.246;4.820;2022-11-14T08:25:47;10.00;74.00
14142;DHT22;7151;52.246;4.820;2022-11-14T08:28:13;10.10;74.20
14142;DHT22;7151;52.246;4.820;2022-11-14T08:30:38;10.10;74.20
14142;DHT22;7151;52.246;4.820;2022-11-14T08:33:05;10.10;74.20
14142;DHT22;7151;52.246;4.820;2022-11-14T08:35:32;10.10;74.20
14142;DHT22;7151;52.246;4.820;2022-11-14T08:38:00;10.10;74.30
14142;DHT22;7151;52.246;4.820;2022-11-14T08:40:25;10.10;74.30
14142;DHT22;7151;52.246;4.820;2022-11-14T08:42:51;10.20;74.40
14142;DHT22;7151;52.246;4.820;2022-11-14T08:45:17;10.20;74.50
14142;DHT22;7151;52.246;4.820;2022-11-14T08:47:49;10.20;75.10
14142;DHT22;7151;52.246;4.820;2022-11-14T08:50:15;10.30;74.60
14142;DHT22;7151;52.246;4.820;2022-11-14T08:52:41;10.30;74.60
14142;DHT22;7151;52.246;4.820;2022-11-14T08:55:06;10.30;74.60
14142;DHT22;7151;52.246;4.820;2022-11-14T08:57:32;10.30;74.60
14142;DHT22;7151;52.246;4.820;2022-11-14T08:59:57;10.40;74.60
14142;DHT22;7151;52.246;4.820;2022-11-14T09:02:23;10.40;74.60
14142;DHT22;7151;52.246;4.820;2022-11-14T09:04:48;10.40;74.60
14142;DHT22;7151;52.246;4.820;2022-11-14T09:07:14;10.40;74.60
14142;DHT22;7151;52.246;4.820;2022-11-14T09:09:39;10.40;74.70
14142;DHT22;7151;52.246;4.820;2022-11-14T09:12:05;10.40;74.90
14142;DHT22;7151;52.246;4.820;2022-11-14T09:14:30;10.50;75.00
14142;DHT22;7151;52.246;4.820;2022-11-14T09:16:56;10.50;75.00
14142;DHT22;7151;52.246;4.820;2022-11-14T09:19:22;10.50;75.00
14142;DHT22;7151;52.246;4.820;2022-11-14T09:21:47;10.60;75.00
14142;DHT22;7151;52.246;4.820;2022-11-14T09:24:13;10.60;75.00
14142;DHT22;7151;52.246;4.820;2022-11-14T09:26:38;10.60;75.20
14142;DHT22;7151;52.246;4.820;2022-11-14T09:29:04;10.60;75.30
14142;DHT22;7151;52.246;4.820;2022-11-14T09:31:30;10.70;75.40
14142;DHT22;7151;52.246;4.820;2022-11-14T09:33:56;10.70;75.40
14142;DHT22;7151;52.246;4.820;2022-11-14T09:36:21;10.70;75.40
14142;DHT22;7151;52.246;4.820;2022-11-14T09:38:50;10.80;75.50
14142;DHT22;7151;52.246;4.820;2022-11-14T09:41:51;10.80;75.50
14142;DHT22;7151;52.246;4.820;2022-11-14T09:47:03;10.90;75.50
14142;DHT22;7151;52.246;4.820;2022-11-14T09:49:39;11.00;75.70
14142;DHT22;7151;52.246;4.820;2022-11-14T09:52:35;11.00;75.60
14142;DHT22;7151;52.246;4.820;2022-11-14T09:55:03;11.00;75.60
14142;DHT22;7151;52.246;4.820;2022-11-14T09:57:34;11.10;75.70
14142;DHT22;7151;52.246;4.820;2022-11-14T09:59:59;11.10;75.70
14142;DHT22;7151;52.246;4.820;2022-11-14T10:02:37;11.20;75.90
14142;DHT22;7151;52.246;4.820;2022-11-14T10:08:12;11.30;75.80
14142;DHT22;7151;52.246;4.820;2022-11-14T10:10:53;11.30;75.70
14142;DHT22;7151;52.246;4.820;2022-11-14T10:13:46;11.30;75.70
14142;DHT22;7151;52.246;4.820;2022-11-14T10:19:22;11.40;75.70
14142;DHT22;7151;52.246;4.820;2022-11-14T10:28:18;11.60;75.90
14142;DHT22;7151;52.246;4.820;2022-11-14T10:34:07;11.70;76.50
14142;DHT22;7151;52.246;4.820;2022-11-14T10:41:55;11.80;75.90
14142;DHT22;7151;52.246;4.820;2022-11-14T10:44:27;11.90;75.90
14142;DHT22;7151;52.246;4.820;2022-11-14T10:46:57;12.00;75.90
14142;DHT22;7151;52.246;4.820;2022-11-14T10:49:25;12.00;75.90
14142;DHT22;7151;52.246;4.820;2022-11-14T10:51:56;12.00;75.90
14142;DHT22;7151;52.246;4.820;2022-11-14T10:56:55;12.10;76.00
14142;DHT22;7151;52.246;4.820;2022-11-14T10:59:21;12.20;75.90
14142;DHT22;7151;52.246;4.820;2022-11-14T11:07:16;12.30;75.90
14142;DHT22;7151;52.246;4.820;2022-11-14T11:10:00;12.40;75.90
14142;DHT22;7151;52.246;4.820;2022-11-14T11:12:49;12.40;76.50
14142;DHT22;7151;52.246;4.820;2022-11-14T11:15:31;12.50;75.70
14142;DHT22;7151;52.246;4.820;2022-11-14T11:18:12;12.50;75.60
14142;DHT22;7151;52.246;4.820;2022-11-14T11:23:26;12.70;75.30
14142;DHT22;7151;52.246;4.820;2022-11-14T11:26:04;12.70;75.30
14142;DHT22;7151;52.246;4.820;2022-11-14T11:28:33;12.70;75.10
14142;DHT22;7151;52.246;4.820;2022-11-14T11:31:01;12.80;75.10
14142;DHT22;7151;52.246;4.820;2022-11-14T11:33:29;12.80;75.00
14142;DHT22;7151;52.246;4.820;2022-11-14T11:36:00;12.90;75.10
14142;DHT22;7151;52.246;4.820;2022-11-14T11:38:29;12.90;75.00
14142;DHT22;7151;52.246;4.820;2022-11-14T11:41:21;13.00;75.10
14142;DHT22;7151;52.246;4.820;2022-11-14T11:43:55;13.00;75.60
14142;DHT22;7151;52.246;4.820;2022-11-14T11:49:39;13.10;74.70
14142;DHT22;7151;52.246;4.820;2022-11-14T11:52:23;13.20;74.60
14142;DHT22;7151;52.246;4.820;2022-11-14T11:58:00;13.30;74.50
14142;DHT22;7151;52.246;4.820;2022-11-14T12:00:23;13.30;74.50
14142;DHT22;7151;52.246;4.820;2022-11-14T12:02:50;13.40;74.60
14142;DHT22;7151;52.246;4.820;2022-11-14T12:05:39;13.40;74.60
14142;DHT22;7151;52.246;4.820;2022-11-14T12:10:43;13.50;74.50
14142;DHT22;7151;52.246;4.820;2022-11-14T12:16:05;13.60;74.40
14142;DHT22;7151;52.246;4.820;2022-11-14T12:24:56;13.80;74.00
14142;DHT22;7151;52.246;4.820;2022-11-14T12:27:26;13.80;73.80
14142;DHT22;7151;52.246;4.820;2022-11-14T12:32:29;13.80;74.20
14142;DHT22;7151;52.246;4.820;2022-11-14T12:34:56;13.80;73.30
14142;DHT22;7151;52.246;4.820;2022-11-14T12:37:35;13.80;73.30
14142;DHT22;7151;52.246;4.820;2022-11-14T12:40:06;13.80;73.10
14142;DHT22;7151;52.246;4.820;2022-11-14T12:42:32;13.90;73.20
14142;DHT22;7151;52.246;4.820;2022-11-14T12:44:58;13.90;73.20
14142;DHT22;7151;52.246;4.820;2022-11-14T12:47:28;13.90;73.30
14142;DHT22;7151;52.246;4.820;2022-11-14T12:52:42;13.90;73.10
14142;DHT22;7151;52.246;4.820;2022-11-14T12:58:07;13.90;73.00
14142;DHT22;7151;52.246;4.820;2022-11-14T13:00:56;13.90;73.10
14142;DHT22;7151;52.246;4.820;2022-11-14T13:03:40;13.90;73.10
14142;DHT22;7151;52.246;4.820;2022-11-14T13:11:47;13.90;72.90
14142;DHT22;7151;52.246;4.820;2022-11-14T13:14:47;13.90;72.90
14142;DHT22;7151;52.246;4.820;2022-11-14T13:17:33;13.90;72.90
14142;DHT22;7151;52.246;4.820;2022-11-14T13:23:05;13.80;72.90
14142;DHT22;7151;52.246;4.820;2022-11-14T13:28:52;13.80;73.00
14142;DHT22;7151;52.246;4.820;2022-11-14T13:31:19;13.80;72.90
14142;DHT22;7151;52.246;4.820;2022-11-14T13:33:49;13.80;73.00
14142;DHT22;7151;52.246;4.820;2022-11-14T13:50:46;13.80;73.00
14142;DHT22;7151;52.246;4.820;2022-11-14T13:53:20;13.80;73.00
14142;DHT22;7151;52.246;4.820;2022-11-14T13:56:04;13.80;73.00
14142;DHT22;7151;52.246;4.820;2022-11-14T14:04:37;13.80;73.20
14142;DHT22;7151;52.246;4.820;2022-11-14T14:10:34;13.70;73.30
14142;DHT22;7151;52.246;4.820;2022-11-14T14:18:53;13.80;73.50
14142;DHT22;7151;52.246;4.820;2022-11-14T14:29:53;13.70;73.60
14142;DHT22;7151;52.246;4.820;2022-11-14T14:32:23;13.70;73.60
14142;DHT22;7151;52.246;4.820;2022-11-14T14:34:49;13.70;73.60
14142;DHT22;7151;52.246;4.820;2022-11-14T14:37:23;13.70;73.70
14142;DHT22;7151;52.246;4.820;2022-11-14T14:40:03;13.70;73.70
14142;DHT22;7151;52.246;4.820;2022-11-14T14:42:36;13.70;73.80
14142;DHT22;7151;52.246;4.820;2022-11-14T14:45:03;13.70;73.90
14142;DHT22;7151;52.246;4.820;2022-11-14T14:47:39;13.70;73.80
14142;DHT22;7151;52.246;4.820;2022-11-14T14:50:22;13.70;73.70
14142;DHT22;7151;52.246;4.820;2022-11-14T14:52:59;13.70;73.70
14142;DHT22;7151;52.246;4.820;2022-11-14T14:55:30;13.70;73.70
14142;DHT22;7151;52.246;4.820;2022-11-14T15:01:10;13.60;73.60
14142;DHT22;7151;52.246;4.820;2022-11-14T15:03:39;13.60;73.60
14142;DHT22;7151;52.246;4.820;2022-11-14T15:08:45;13.60;73.60
14142;DHT22;7151;52.246;4.820;2022-11-14T15:11:13;13.60;73.50
14142;DHT22;7151;52.246;4.820;2022-11-14T15:13:40;13.50;73.40
14142;DHT22;7151;52.246;4.820;2022-11-14T15:16:07;13.50;73.50
14142;DHT22;7151;52.246;4.820;2022-11-14T15:18:34;13.50;73.50
14142;DHT22;7151;52.246;4.820;2022-11-14T15:21:22;13.50;73.60
14142;DHT22;7151;52.246;4.820;2022-11-14T15:24:39;13.40;73.60
14142;DHT22;7151;52.246;4.820;2022-11-14T15:26:48;13.40;73.60
14142;DHT22;7151;52.246;4.820;2022-11-14T15:29:17;13.40;73.60
14142;DHT22;7151;52.246;4.820;2022-11-14T15:31:46;13.40;73.70
14142;DHT22;7151;52.246;4.820;2022-11-14T15:39:37;13.30;73.50
14142;DHT22;7151;52.246;4.820;2022-11-14T15:44:54;13.30;73.50
14142;DHT22;7151;52.246;4.820;2022-11-14T15:47:32;13.20;73.40
14142;DHT22;7151;52.246;4.820;2022-11-14T15:52:35;13.20;73.40
14142;DHT22;7151;52.246;4.820;2022-11-14T15:55:03;13.20;73.50
14142;DHT22;7151;52.246;4.820;2022-11-14T15:57:30;13.10;73.50
14142;DHT22;7151;52.246;4.820;2022-11-14T15:59:56;13.10;73.60
14142;DHT22;7151;52.246;4.820;2022-11-14T16:02:29;13.10;73.50
14142;DHT22;7151;52.246;4.820;2022-11-14T16:04:57;13.10;73.60
14142;DHT22;7151;52.246;4.820;2022-11-14T16:07:23;13.10;73.60
14142;DHT22;7151;52.246;4.820;2022-11-14T16:09:49;13.10;73.60
14142;DHT22;7151;52.246;4.820;2022-11-14T16:12:16;13.00;73.50
14142;DHT22;7151;52.246;4.820;2022-11-14T16:14:42;13.00;73.60
14142;DHT22;7151;52.246;4.820;2022-11-14T16:17:15;13.00;73.60
14142;DHT22;7151;52.246;4.820;2022-11-14T16:19:41;13.00;73.70
14142;DHT22;7151;52.246;4.820;2022-11-14T16:22:16;13.00;73.60
14142;DHT22;7151;52.246;4.820;2022-11-14T16:24:42;13.00;73.70
14142;DHT22;7151;52.246;4.820;2022-11-14T16:27:07;12.90;73.50
14142;DHT22;7151;52.246;4.820;2022-11-14T16:29:33;12.90;73.50
14142;DHT22;7151;52.246;4.820;2022-11-14T16:31:58;12.90;73.50
14142;DHT22;7151;52.246;4.820;2022-11-14T16:34:25;12.90;73.60
14142;DHT22;7151;52.246;4.820;2022-11-14T16:37:01;12.90;73.60
14142;DHT22;7151;52.246;4.820;2022-11-14T16:39:27;12.90;73.60
14142;DHT22;7151;52.246;4.820;2022-11-14T16:41:58;12.90;73.50
14142;DHT22;7151;52.246;4.820;2022-11-14T16:44:25;12.90;73.60
14142;DHT22;7151;52.246;4.820;2022-11-14T16:46:51;12.80;73.50
14142;DHT22;7151;52.246;4.820;2022-11-14T16:49:17;12.80;73.50
14142;DHT22;7151;52.246;4.820;2022-11-14T16:51:46;12.80;73.50
14142;DHT22;7151;52.246;4.820;2022-11-14T16:54:13;12.70;73.40
14142;DHT22;7151;52.246;4.820;2022-11-14T16:56:39;12.70;73.50
14142;DHT22;7151;52.246;4.820;2022-11-14T16:59:05;12.70;73.50
14142;DHT22;7151;52.246;4.820;2022-11-14T17:01:31;12.80;73.60
14142;DHT22;7151;52.246;4.820;2022-11-14T17:03:57;12.70;73.60
14142;DHT22;7151;52.246;4.820;2022-11-14T17:06:26;12.70;73.60
14142;DHT22;7151;52.246;4.820;2022-11-14T17:08:56;12.70;73.60
14142;DHT22;7151;52.246;4.820;2022-11-14T17:11:23;12.60;73.60
14142;DHT22;7151;52.246;4.820;2022-11-14T17:13:49;12.60;73.60
14142;DHT22;7151;52.246;4.820;2022-11-14T17:16:15;12.60;73.60
14142;DHT22;7151;52.246;4.820;2022-11-14T17:18:41;12.60;73.60
14142;DHT22;7151;52.246;4.820;2022-11-14T17:21:09;12.60;73.70
14142;DHT22;7151;52.246;4.820;2022-11-14T17:23:35;12.50;73.60
14142;DHT22;7151;52.246;4.820;2022-11-14T17:26:04;12.50;73.60
14142;DHT22;7151;52.246;4.820;2022-11-14T17:28:32;12.50;73.70
14142;DHT22;7151;52.246;4.820;2022-11-14T17:30:58;12.50;73.60
14142;DHT22;7151;52.246;4.820;2022-11-14T17:33:24;12.50;73.70
14142;DHT22;7151;52.246;4.820;2022-11-14T17:35:49;12.50;73.70
14142;DHT22;7151;52.246;4.820;2022-11-14T17:38:15;12.50;73.70
14142;DHT22;7151;52.246;4.820;2022-11-14T17:40:40;12.50;73.70
14142;DHT22;7151;52.246;4.820;2022-11-14T17:43:06;12.40;73.70
14142;DHT22;7151;52.246;4.820;2022-11-14T17:45:32;12.40;73.70
14142;DHT22;7151;52.246;4.820;2022-11-14T17:47:57;12.40;73.70
14142;DHT22;7151;52.246;4.820;2022-11-14T17:50:23;12.40;73.70
14142;DHT22;7151;52.246;4.820;2022-11-14T17:52:48;12.40;73.80
14142;DHT22;7151;52.246;4.820;2022-11-14T17:55:14;12.40;73.80
14142;DHT22;7151;52.246;4.820;2022-11-14T17:57:40;12.40;73.80
14142;DHT22;7151;52.246;4.820;2022-11-14T18:00:06;12.30;73.80
14142;DHT22;7151;52.246;4.820;2022-11-14T18:02:32;12.30;73.80